Time;durP1;ratioP1;P1;durP2;ratioP2;P2;SDS_P1;SDS_P2;PMS_P1;PMS_P2;Temp;Humidity;BMP_temperature;BMP_pressure;BME280_temperature;BME280_humidity;BME280_pressure;Samples;Min_cycle;Max_cycle;Signal;HPM_P1;HPM_P2
2022/03/22 00:00:32;;;;;;;26.38;16.45;;;;;;;;;;2079932;28;20427;-59
2022/03/22 00:01:51;;;;;;;25.33;16.50;;;;;;;;;;2076534;28;20034;-59
2022/03/22 00:03:10;;;;;;;24.65;15.60;;;;;;;;;;2079832;28;20423;-59
2022/03/22 00:04:29;;;;;;;23.83;16.00;;;;;;;;;;2080323;28;20037;-59
2022/03/22 00:05:48;;;;;;;23.40;15.73;;;;;;;;;;2080459;28;20049;-59
2022/03/22 00:07:08;;;;;;;27.85;16.17;;;;;;;;;;2080702;28;20029;-58
2022/03/22 00:08:27;;;;;;;24.73;15.40;;;;;;;;;;2081045;28;20037;-59
2022/03/22 00:09:46;;;;;;;22.77;16.08;;;;;;;;;;2081217;28;20033;-57
2022/03/22 00:11:05;;;;;;;23.30;15.50;;;;;;;;;;2081690;28;20108;-59
2022/03/22 00:12:24;;;;;;;27.77;16.15;;;;;;;;;;2080295;28;20038;-59
2022/03/22 00:13:43;;;;;;;27.73;16.20;;;;;;;;;;2079005;28;20065;-59
2022/03/22 00:15:02;;;;;;;29.25;16.48;;;;;;;;;;2079479;28;20133;-59
2022/03/22 00:16:21;;;;;;;23.38;16.42;;;;;;;;;;2081349;28;20052;-59
2022/03/22 00:17:40;;;;;;;22.27;15.77;;;;;;;;;;2081469;28;20021;-59
2022/03/22 00:18:59;;;;;;;27.40;16.85;;;;;;;;;;2080935;28;20034;-59
2022/03/22 00:20:18;;;;;;;26.95;15.57;;;;;;;;;;2078333;28;20406;-59
2022/03/22 00:21:37;;;;;;;23.63;16.10;;;;;;;;;;2079231;28;20396;-59
2022/03/22 00:22:57;;;;;;;26.35;15.85;;;;;;;;;;2081617;28;20037;-59
2022/03/22 00:24:16;;;;;;;24.35;16.02;;;;;;;;;;2079508;28;20038;-59
2022/03/22 00:25:35;;;;;;;27.77;16.50;;;;;;;;;;2077777;28;20037;-58
2022/03/22 00:26:54;;;;;;;22.27;15.93;;;;;;;;;;2079853;28;20033;-59
2022/03/22 00:28:13;;;;;;;24.83;15.85;;;;;;;;;;2080804;28;20045;-59
2022/03/22 00:29:32;;;;;;;24.77;16.08;;;;;;;;;;2080419;28;20026;-58
2022/03/22 00:30:51;;;;;;;28.80;15.43;;;;;;;;;;2080587;28;20029;-59
2022/03/22 00:32:10;;;;;;;28.23;16.33;;;;;;;;;;2079501;28;20065;-59
2022/03/22 00:33:29;;;;;;;24.17;16.27;;;;;;;;;;2080319;28;20041;-58
2022/03/22 00:34:48;;;;;;;31.30;16.98;;;;;;;;;;2080378;28;20046;-59
2022/03/22 00:36:07;;;;;;;25.55;16.15;;;;;;;;;;2080221;28;20484;-59
2022/03/22 00:37:26;;;;;;;30.02;16.60;;;;;;;;;;2081777;28;20104;-59
2022/03/22 00:38:45;;;;;;;26.70;16.08;;;;;;;;;;2080156;28;20052;-59
2022/03/22 00:40:16;;;;;;;22.33;15.48;;;;;;;;;;2079389;28;20026;-59
2022/03/22 00:41:35;;;;;;;25.50;15.85;;;;;;;;;;2079548;28;20045;-59
2022/03/22 00:42:54;;;;;;;30.58;16.10;;;;;;;;;;2079611;28;20034;-58
2022/03/22 00:44:13;;;;;;;33.10;17.13;;;;;;;;;;2080714;28;20038;-59
2022/03/22 00:45:33;;;;;;;28.60;15.93;;;;;;;;;;2078918;28;20034;-59
2022/03/22 00:46:52;;;;;;;24.98;14.85;;;;;;;;;;2080508;28;20033;-59
2022/03/22 00:48:12;;;;;;;28.38;16.40;;;;;;;;;;2079818;28;20388;-59
2022/03/22 00:49:33;;;;;;;26.92;16.23;;;;;;;;;;2078523;28;20041;-59
2022/03/22 00:50:52;;;;;;;28.02;16.08;;;;;;;;;;2079139;28;20156;-58
2022/03/22 00:52:11;;;;;;;28.55;16.00;;;;;;;;;;2077042;28;20042;-59
2022/03/22 00:53:30;;;;;;;32.28;17.30;;;;;;;;;;2081129;28;20119;-59
2022/03/22 00:54:49;;;;;;;26.33;16.13;;;;;;;;;;2079425;28;20041;-59
2022/03/22 00:56:08;;;;;;;29.67;16.88;;;;;;;;;;2078853;28;20026;-58
2022/03/22 00:57:27;;;;;;;31.33;16.48;;;;;;;;;;2080672;28;20022;-59
2022/03/22 01:00:01;;;;;;;32.40;16.60;;;;;;;;;;2081121;28;20116;-59
2022/03/22 01:00:26;;;;;;;35.28;17.02;;;;;;;;;;2080073;28;20033;-59
2022/03/22 01:01:45;;;;;;;33.33;17.20;;;;;;;;;;2080520;28;20029;-59
2022/03/22 01:03:05;;;;;;;34.10;16.63;;;;;;;;;;2079338;28;20034;-58
2022/03/22 01:04:24;;;;;;;26.45;16.23;;;;;;;;;;2078798;28;20392;-58
2022/03/22 01:05:43;;;;;;;28.80;15.85;;;;;;;;;;2080044;28;20033;-59
2022/03/22 01:07:03;;;;;;;25.58;15.63;;;;;;;;;;2080295;28;20037;-59
2022/03/22 01:08:23;;;;;;;30.80;16.13;;;;;;;;;;2080107;28;20029;-59
2022/03/22 01:09:41;;;;;;;35.92;17.15;;;;;;;;;;2079573;28;20037;-58
2022/03/22 01:11:01;;;;;;;25.33;16.20;;;;;;;;;;2078941;28;20033;-59
2022/03/22 01:12:20;;;;;;;26.13;16.40;;;;;;;;;;2078592;28;20450;-59
2022/03/22 01:13:39;;;;;;;30.65;17.80;;;;;;;;;;2078290;28;20042;-58
2022/03/22 01:14:58;;;;;;;32.17;17.20;;;;;;;;;;2080744;28;20034;-59
2022/03/22 01:16:17;;;;;;;32.53;16.58;;;;;;;;;;2078515;28;20069;-58
2022/03/22 01:17:37;;;;;;;27.45;16.50;;;;;;;;;;2079834;28;20430;-59
2022/03/22 01:18:55;;;;;;;29.83;16.30;;;;;;;;;;2078007;28;20108;-57
2022/03/22 01:20:14;;;;;;;33.10;17.42;;;;;;;;;;2079628;28;20484;-59
2022/03/22 01:21:33;;;;;;;26.15;16.52;;;;;;;;;;2076877;28;20045;-58
2022/03/22 01:22:52;;;;;;;30.95;16.65;;;;;;;;;;2077771;28;20026;-59
2022/03/22 01:24:11;;;;;;;30.35;18.00;;;;;;;;;;2080538;28;20034;-59
2022/03/22 01:25:32;;;;;;;28.90;17.05;;;;;;;;;;2079226;28;20030;-58
2022/03/22 01:26:51;;;;;;;29.88;16.30;;;;;;;;;;2078704;28;20459;-59
2022/03/22 01:28:12;;;;;;;27.63;17.08;;;;;;;;;;2076843;28;20038;-59
2022/03/22 01:29:31;;;;;;;30.80;17.77;;;;;;;;;;2077296;28;20023;-58
2022/03/22 01:30:50;;;;;;;25.38;17.17;;;;;;;;;;2078977;28;20034;-59
2022/03/22 01:32:09;;;;;;;30.42;17.42;;;;;;;;;;2077563;28;20515;-60
2022/03/22 01:33:28;;;;;;;29.92;16.70;;;;;;;;;;2075366;28;20045;-57
2022/03/22 01:34:46;;;;;;;29.77;16.92;;;;;;;;;;2077233;28;20030;-59
2022/03/22 01:36:05;;;;;;;26.35;17.15;;;;;;;;;;2079760;28;20571;-62
2022/03/22 01:37:24;;;;;;;27.77;16.83;;;;;;;;;;2080909;28;20492;-59
2022/03/22 01:38:43;;;;;;;31.90;17.88;;;;;;;;;;2079981;28;20489;-59
2022/03/22 01:40:03;;;;;;;29.60;17.55;;;;;;;;;;2079202;28;20033;-59
2022/03/22 01:41:22;;;;;;;34.45;17.60;;;;;;;;;;2078614;28;20026;-58
2022/03/22 01:42:41;;;;;;;29.30;17.17;;;;;;;;;;2079007;28;20442;-58
2022/03/22 01:44:00;;;;;;;30.42;16.75;;;;;;;;;;2080409;28;20088;-58
2022/03/22 01:45:20;;;;;;;26.80;16.73;;;;;;;;;;2080354;28;20033;-59
2022/03/22 01:46:39;;;;;;;31.25;18.73;;;;;;;;;;2078705;28;20041;-58
2022/03/22 01:47:59;;;;;;;27.88;17.65;;;;;;;;;;2079006;28;20022;-58
2022/03/22 01:49:18;;;;;;;30.20;18.42;;;;;;;;;;2079927;28;20030;-59
2022/03/22 01:50:37;;;;;;;30.83;18.25;;;;;;;;;;2077648;28;20021;-59
2022/03/22 01:51:57;;;;;;;31.40;18.10;;;;;;;;;;2077429;28;20065;-59
2022/03/22 01:53:16;;;;;;;30.73;17.92;;;;;;;;;;2079367;28;20383;-59
2022/03/22 01:54:35;;;;;;;34.75;18.77;;;;;;;;;;2078884;28;20038;-58
2022/03/22 01:55:54;;;;;;;30.23;17.80;;;;;;;;;;2080404;28;20034;-58
2022/03/22 01:57:13;;;;;;;28.60;18.02;;;;;;;;;;2079325;28;20029;-59
2022/03/22 01:58:33;;;;;;;32.15;18.63;;;;;;;;;;2080452;28;20025;-59
2022/03/22 01:59:52;;;;;;;30.55;18.45;;;;;;;;;;2080159;28;20033;-58
2022/03/22 02:06:07;;;;;;;30.48;17.15;;;;;;;;;;2079697;28;20029;-58
2022/03/22 02:07:28;;;;;;;27.92;16.63;;;;;;;;;;2079020;28;20033;-58
2022/03/22 02:08:47;;;;;;;28.33;18.17;;;;;;;;;;2079011;28;20033;-59
2022/03/22 02:10:06;;;;;;;30.13;17.42;;;;;;;;;;2080172;28;20112;-58
2022/03/22 02:11:26;;;;;;;30.80;18.30;;;;;;;;;;2078350;28;20422;-58
2022/03/22 02:12:45;;;;;;;30.38;17.30;;;;;;;;;;2076877;28;20029;-59
2022/03/22 02:14:04;;;;;;;29.42;17.70;;;;;;;;;;2078517;28;20033;-59
2022/03/22 02:15:23;;;;;;;28.25;17.60;;;;;;;;;;2078883;28;20025;-58
2022/03/22 02:16:42;;;;;;;35.25;17.67;;;;;;;;;;2080516;28;20025;-59
2022/03/22 02:18:01;;;;;;;31.63;18.55;;;;;;;;;;2078895;28;20029;-59
2022/03/22 02:19:21;;;;;;;27.35;17.90;;;;;;;;;;2079296;28;20029;-59
2022/03/22 02:20:40;;;;;;;30.27;18.00;;;;;;;;;;2079423;28;20021;-59
2022/03/22 02:22:00;;;;;;;32.53;17.80;;;;;;;;;;2078091;28;20049;-57
2022/03/22 02:23:21;;;;;;;30.35;18.08;;;;;;;;;;2080244;28;20029;-58
2022/03/22 02:24:40;;;;;;;23.65;16.83;;;;;;;;;;2078868;28;20042;-59
2022/03/22 02:25:58;;;;;;;26.48;16.80;;;;;;;;;;2079543;28;20042;-59
2022/03/22 02:27:17;;;;;;;34.58;18.17;;;;;;;;;;2078078;28;20030;-58
2022/03/22 02:28:37;;;;;;;32.80;17.83;;;;;;;;;;2080657;28;20041;-58
2022/03/22 02:29:56;;;;;;;31.27;17.52;;;;;;;;;;2080151;28;20033;-58
2022/03/22 02:31:18;;;;;;;28.65;18.48;;;;;;;;;;2078179;28;20057;-58
2022/03/22 02:32:36;;;;;;;33.80;18.73;;;;;;;;;;2076998;28;20037;-59
2022/03/22 02:33:56;;;;;;;29.25;18.25;;;;;;;;;;2078502;28;20543;-58
2022/03/22 02:35:15;;;;;;;28.60;17.83;;;;;;;;;;2080225;28;20046;-58
2022/03/22 02:36:35;;;;;;;27.88;17.85;;;;;;;;;;2080250;28;20624;-58
2022/03/22 02:37:54;;;;;;;29.83;17.85;;;;;;;;;;2077017;28;20112;-58
2022/03/22 02:39:13;;;;;;;29.02;18.02;;;;;;;;;;2078187;28;20385;-59
2022/03/22 02:40:32;;;;;;;29.25;18.20;;;;;;;;;;2078759;28;20037;-58
2022/03/22 02:41:51;;;;;;;30.00;18.17;;;;;;;;;;2078847;28;20038;-58
2022/03/22 02:43:11;;;;;;;27.17;18.38;;;;;;;;;;2079847;28;20384;-58
2022/03/22 02:44:30;;;;;;;29.05;17.15;;;;;;;;;;2078748;28;20472;-59
2022/03/22 02:45:49;;;;;;;34.47;18.55;;;;;;;;;;2079219;28;20029;-57
2022/03/22 02:47:07;;;;;;;28.88;18.02;;;;;;;;;;2078625;28;20025;-58
2022/03/22 02:48:27;;;;;;;30.10;17.15;;;;;;;;;;2076903;28;20503;-59
2022/03/22 02:49:45;;;;;;;32.30;19.27;;;;;;;;;;2077688;28;20488;-58
2022/03/22 02:51:04;;;;;;;29.58;17.70;;;;;;;;;;2079547;28;20033;-58
2022/03/22 02:52:23;;;;;;;28.25;18.58;;;;;;;;;;2076657;28;20021;-58
2022/03/22 02:53:42;;;;;;;29.60;18.45;;;;;;;;;;2080382;28;20399;-58
2022/03/22 02:55:02;;;;;;;32.97;19.15;;;;;;;;;;2079461;28;20448;-58
2022/03/22 02:56:20;;;;;;;30.63;19.40;;;;;;;;;;2079354;28;20104;-59
2022/03/22 02:57:40;;;;;;;31.70;18.17;;;;;;;;;;2078756;28;21066;-59
2022/03/22 02:58:59;;;;;;;34.22;19.05;;;;;;;;;;2079020;28;20033;-58
2022/03/22 03:00:18;;;;;;;31.75;18.85;;;;;;;;;;2080090;28;20033;-58
2022/03/22 03:01:37;;;;;;;32.22;18.75;;;;;;;;;;2079573;28;20480;-58
2022/03/22 03:02:56;;;;;;;34.35;19.40;;;;;;;;;;2078898;28;20029;-58
2022/03/22 03:04:15;;;;;;;32.55;19.08;;;;;;;;;;2077119;28;20112;-58
2022/03/22 03:05:34;;;;;;;27.00;18.55;;;;;;;;;;2077244;28;20034;-58
2022/03/22 03:06:53;;;;;;;29.17;19.45;;;;;;;;;;2079673;28;20038;-59
2022/03/22 03:08:12;;;;;;;29.70;18.88;;;;;;;;;;2078064;28;20587;-59
2022/03/22 03:09:31;;;;;;;31.45;18.38;;;;;;;;;;2080168;28;20069;-58
2022/03/22 03:10:50;;;;;;;30.13;19.52;;;;;;;;;;2080251;28;20069;-59
2022/03/22 03:12:09;;;;;;;29.83;19.23;;;;;;;;;;2079774;28;20054;-59
2022/03/22 03:14:38;;;;;;;28.45;18.98;;;;;;;;;;2080051;28;20392;-58
2022/03/22 03:15:08;;;;;;;29.25;18.15;;;;;;;;;;2080237;28;20037;-58
2022/03/22 03:16:27;;;;;;;25.80;17.80;;;;;;;;;;2080584;28;20030;-58
2022/03/22 03:17:46;;;;;;;31.17;18.42;;;;;;;;;;2080651;28;20124;-58
2022/03/22 03:19:06;;;;;;;31.17;19.33;;;;;;;;;;2080876;28;20116;-58
2022/03/22 03:20:25;;;;;;;30.25;18.30;;;;;;;;;;2077955;28;20488;-59
2022/03/22 03:21:44;;;;;;;25.92;17.30;;;;;;;;;;2080580;28;20057;-58
2022/03/22 03:23:03;;;;;;;30.35;18.83;;;;;;;;;;2079220;28;20043;-58
2022/03/22 03:24:22;;;;;;;26.38;17.92;;;;;;;;;;2080741;28;20108;-58
2022/03/22 03:25:41;;;;;;;27.92;18.27;;;;;;;;;;2080566;28;20477;-59
2022/03/22 03:27:00;;;;;;;33.25;19.58;;;;;;;;;;2081018;28;20041;-57
2022/03/22 03:28:19;;;;;;;27.20;18.23;;;;;;;;;;2080380;28;20037;-58
2022/03/22 03:29:38;;;;;;;32.58;18.05;;;;;;;;;;2079687;28;20675;-58
2022/03/22 03:30:56;;;;;;;27.40;18.00;;;;;;;;;;2079861;28;20388;-59
2022/03/22 03:32:16;;;;;;;29.40;18.23;;;;;;;;;;2080344;28;20018;-58
2022/03/22 03:33:34;;;;;;;30.70;18.63;;;;;;;;;;2080329;28;20053;-59
2022/03/22 03:34:53;;;;;;;30.55;18.77;;;;;;;;;;2079269;28;20030;-59
2022/03/22 03:36:12;;;;;;;29.33;19.08;;;;;;;;;;2081326;28;20030;-57
2022/03/22 03:37:36;;;;;;;31.20;17.70;;;;;;;;;;2080166;28;20025;-57
2022/03/22 03:38:55;;;;;;;27.58;17.33;;;;;;;;;;2080216;28;20049;-58
2022/03/22 03:40:14;;;;;;;27.25;18.38;;;;;;;;;;2080110;28;20492;-57
2022/03/22 03:43:11;;;;;;;30.30;17.77;;;;;;;;;;2081025;28;20459;-59
2022/03/22 03:47:47;;;;;;;32.40;19.67;;;;;;;;;;2080718;28;20037;-59
2022/03/22 03:49:08;;;;;;;26.80;18.52;;;;;;;;;;2079769;28;20021;-58
2022/03/22 03:50:27;;;;;;;28.38;18.38;;;;;;;;;;2080355;28;20021;-58
2022/03/22 03:51:46;;;;;;;30.73;19.60;;;;;;;;;;2078231;28;20026;-58
2022/03/22 03:53:05;;;;;;;29.92;18.60;;;;;;;;;;2081576;28;20045;-58
2022/03/22 03:54:24;;;;;;;34.75;20.92;;;;;;;;;;2080063;28;20037;-59
2022/03/22 03:55:43;;;;;;;29.25;19.20;;;;;;;;;;2080345;28;20025;-59
2022/03/22 03:57:02;;;;;;;28.02;18.85;;;;;;;;;;2081209;28;20041;-59
2022/03/22 03:58:21;;;;;;;28.08;19.00;;;;;;;;;;2080403;28;20029;-59
2022/03/22 03:59:41;;;;;;;27.70;18.48;;;;;;;;;;2081360;28;20476;-59
2022/03/22 04:01:01;;;;;;;29.77;18.13;;;;;;;;;;2080843;28;20029;-59
2022/03/22 04:02:21;;;;;;;30.23;19.05;;;;;;;;;;2077020;28;20038;-59
2022/03/22 04:03:40;;;;;;;29.45;17.92;;;;;;;;;;2080567;28;20060;-58
2022/03/22 04:04:59;;;;;;;35.17;19.52;;;;;;;;;;2080520;28;20448;-59
2022/03/22 04:06:18;;;;;;;26.83;17.35;;;;;;;;;;2080911;28;20041;-59
2022/03/22 04:07:37;;;;;;;26.80;17.70;;;;;;;;;;2081701;28;20104;-59
2022/03/22 04:08:56;;;;;;;30.02;19.05;;;;;;;;;;2079900;28;20041;-59
2022/03/22 04:10:15;;;;;;;29.25;16.80;;;;;;;;;;2080202;28;20140;-59
2022/03/22 04:11:34;;;;;;;27.23;18.42;;;;;;;;;;2079187;28;20485;-58
2022/03/22 04:12:53;;;;;;;30.17;18.20;;;;;;;;;;2081030;28;20033;-59
2022/03/22 04:14:12;;;;;;;30.60;17.88;;;;;;;;;;2076097;28;20029;-59
2022/03/22 04:15:31;;;;;;;28.00;18.05;;;;;;;;;;2079815;28;20061;-62
2022/03/22 04:16:51;;;;;;;29.60;18.92;;;;;;;;;;2081691;28;20037;-59
2022/03/22 04:18:09;;;;;;;31.15;18.08;;;;;;;;;;2080524;28;20014;-59
2022/03/22 04:19:29;;;;;;;30.42;18.10;;;;;;;;;;2078698;28;20030;-59
2022/03/22 04:20:49;;;;;;;29.35;18.67;;;;;;;;;;2081328;28;20026;-59
2022/03/22 04:22:08;;;;;;;27.45;16.67;;;;;;;;;;2079366;28;20025;-59
2022/03/22 04:23:28;;;;;;;31.00;17.75;;;;;;;;;;2077330;28;20481;-58
2022/03/22 04:24:47;;;;;;;27.38;17.25;;;;;;;;;;2079687;28;20085;-59
2022/03/22 04:26:06;;;;;;;29.38;18.20;;;;;;;;;;2080482;28;20037;-59
2022/03/22 04:34:01;;;;;;;31.05;17.60;;;;;;;;;;2080353;28;20061;-58
2022/03/22 04:35:23;;;;;;;30.05;17.45;;;;;;;;;;2076987;28;20065;-59
2022/03/22 04:36:43;;;;;;;26.08;17.15;;;;;;;;;;2077726;28;20037;-59
2022/03/22 04:38:02;;;;;;;28.33;16.92;;;;;;;;;;2080425;28;20033;-59
2022/03/22 04:39:22;;;;;;;27.85;17.13;;;;;;;;;;2079532;28;20030;-58
2022/03/22 04:40:41;;;;;;;35.50;18.33;;;;;;;;;;2079457;28;20519;-58
2022/03/22 04:42:00;;;;;;;33.75;18.38;;;;;;;;;;2080118;28;20709;-58
2022/03/22 04:43:19;;;;;;;29.83;18.17;;;;;;;;;;2081296;28;20108;-58
2022/03/22 04:44:38;;;;;;;30.85;17.65;;;;;;;;;;2079275;28;20030;-58
2022/03/22 04:45:57;;;;;;;28.13;16.17;;;;;;;;;;2080096;28;20037;-58
2022/03/22 04:47:16;;;;;;;26.38;16.95;;;;;;;;;;2080735;28;20056;-58
2022/03/22 04:48:36;;;;;;;31.15;16.33;;;;;;;;;;2080291;28;20038;-57
2022/03/22 04:49:54;;;;;;;26.98;16.42;;;;;;;;;;2078890;28;20026;-58
2022/03/22 04:57:46;;;;;;;28.55;17.33;;;;;;;;;;2080888;28;20029;-57
2022/03/22 04:59:04;;;;;;;26.35;16.85;;;;;;;;;;2080199;28;20025;-58
2022/03/22 05:00:23;;;;;;;28.00;16.40;;;;;;;;;;2080357;28;20021;-58
2022/03/22 05:01:42;;;;;;;30.05;16.40;;;;;;;;;;2079727;28;20033;-57
2022/03/22 05:03:02;;;;;;;33.63;16.55;;;;;;;;;;2080015;28;20026;-58
2022/03/22 05:04:21;;;;;;;27.00;16.75;;;;;;;;;;2080146;28;20025;-59
2022/03/22 05:07:18;;;;;;;33.92;17.02;;;;;;;;;;2079954;28;20030;-58
2022/03/22 05:08:37;;;;;;;22.23;15.38;;;;;;;;;;2079459;28;20041;-58
2022/03/22 05:09:56;;;;;;;24.80;15.90;;;;;;;;;;2078548;28;20021;-57
2022/03/22 05:11:14;;;;;;;26.30;15.57;;;;;;;;;;2080027;28;20034;-58
2022/03/22 05:12:37;;;;;;;26.50;16.30;;;;;;;;;;2077871;28;20029;-57
2022/03/22 05:13:56;;;;;;;26.48;16.08;;;;;;;;;;2079474;28;20037;-57
2022/03/22 05:15:15;;;;;;;29.25;16.95;;;;;;;;;;2077242;28;20030;-57
2022/03/22 05:16:35;;;;;;;27.42;16.17;;;;;;;;;;2079675;28;20488;-57
2022/03/22 05:17:56;;;;;;;27.55;16.30;;;;;;;;;;2078207;28;20061;-58
2022/03/22 05:19:15;;;;;;;26.73;15.63;;;;;;;;;;2071922;28;20017;-57
2022/03/22 05:20:34;;;;;;;27.20;16.95;;;;;;;;;;2077315;28;20057;-56
2022/03/22 05:21:53;;;;;;;33.80;16.17;;;;;;;;;;2078099;28;20052;-57
2022/03/22 05:23:12;;;;;;;23.33;15.57;;;;;;;;;;2077892;28;20029;-57
2022/03/22 05:24:30;;;;;;;26.63;16.10;;;;;;;;;;2078363;28;20113;-57
2022/03/22 05:25:49;;;;;;;25.95;16.60;;;;;;;;;;2080238;28;20038;-57
2022/03/22 05:27:08;;;;;;;33.03;16.17;;;;;;;;;;2077711;28;20021;-58
2022/03/22 05:28:27;;;;;;;24.02;15.07;;;;;;;;;;2080300;28;20033;-58
2022/03/22 05:29:46;;;;;;;29.27;16.65;;;;;;;;;;2078645;28;20030;-57
2022/03/22 05:31:08;;;;;;;21.67;15.65;;;;;;;;;;2078128;28;20037;-58
2022/03/22 05:32:26;;;;;;;23.33;15.80;;;;;;;;;;2079302;28;20033;-57
2022/03/22 05:33:45;;;;;;;24.83;16.52;;;;;;;;;;2077286;28;20045;-57
2022/03/22 05:35:04;;;;;;;25.90;16.15;;;;;;;;;;2079031;28;20033;-57
2022/03/22 05:36:23;;;;;;;26.67;15.85;;;;;;;;;;2079473;28;20499;-57
2022/03/22 05:37:42;;;;;;;26.08;16.45;;;;;;;;;;2079431;28;20037;-58
2022/03/22 05:39:01;;;;;;;23.70;14.82;;;;;;;;;;2078528;28;20026;-58
2022/03/22 05:40:20;;;;;;;26.92;15.38;;;;;;;;;;2078440;28;20104;-59
2022/03/22 05:41:39;;;;;;;26.10;15.98;;;;;;;;;;2077938;28;20124;-58
2022/03/22 05:42:58;;;;;;;23.77;15.18;;;;;;;;;;2075636;28;20035;-58
2022/03/22 05:44:21;;;;;;;26.80;16.50;;;;;;;;;;2079251;28;20480;-57
2022/03/22 05:45:39;;;;;;;31.30;16.33;;;;;;;;;;2078647;28;20042;-57
2022/03/22 05:46:59;;;;;;;27.95;16.65;;;;;;;;;;2079173;28;20034;-59
2022/03/22 05:48:18;;;;;;;32.70;17.15;;;;;;;;;;2078662;28;20025;-58
2022/03/22 05:49:38;;;;;;;33.83;16.50;;;;;;;;;;2079392;28;20030;-58
2022/03/22 05:50:57;;;;;;;25.92;15.25;;;;;;;;;;2077239;28;20057;-58
2022/03/22 05:52:16;;;;;;;25.58;16.40;;;;;;;;;;2078925;28;20025;-58
2022/03/22 05:53:35;;;;;;;26.73;15.73;;;;;;;;;;2079155;28;20033;-57
2022/03/22 05:54:54;;;;;;;25.98;15.70;;;;;;;;;;2079617;28;20037;-57
2022/03/22 05:56:13;;;;;;;28.50;15.98;;;;;;;;;;2078569;28;20034;-56
2022/03/22 05:57:32;;;;;;;35.22;16.13;;;;;;;;;;2080028;28;20038;-58
2022/03/22 05:58:51;;;;;;;26.60;15.40;;;;;;;;;;2077896;28;20040;-58
2022/03/22 06:00:10;;;;;;;30.52;16.40;;;;;;;;;;2075030;28;20030;-58
2022/03/22 06:01:29;;;;;;;29.65;16.83;;;;;;;;;;2077415;28;20026;-58
2022/03/22 06:02:48;;;;;;;28.85;16.80;;;;;;;;;;2078384;28;20041;-58
2022/03/22 06:04:07;;;;;;;30.50;16.42;;;;;;;;;;2079905;28;20017;-57
2022/03/22 06:05:28;;;;;;;33.03;17.00;;;;;;;;;;2078547;28;20037;-58
2022/03/22 06:06:47;;;;;;;28.85;16.70;;;;;;;;;;2080083;28;20105;-58
2022/03/22 06:08:06;;;;;;;35.78;17.08;;;;;;;;;;2077006;28;20029;-58
2022/03/22 06:09:25;;;;;;;31.65;16.48;;;;;;;;;;2079605;28;20479;-58
2022/03/22 06:10:44;;;;;;;31.08;15.45;;;;;;;;;;2078499;28;20034;-56
2022/03/22 06:12:06;;;;;;;30.15;15.73;;;;;;;;;;2077589;28;20022;-57
2022/03/22 06:13:25;;;;;;;34.28;16.15;;;;;;;;;;2077314;28;20022;-58
2022/03/22 06:14:43;;;;;;;28.88;15.13;;;;;;;;;;2077762;28;20160;-58
2022/03/22 06:16:05;;;;;;;39.70;16.02;;;;;;;;;;2078145;28;20026;-57
2022/03/22 06:17:23;;;;;;;30.30;15.35;;;;;;;;;;2079199;28;20053;-57
2022/03/22 06:18:42;;;;;;;33.38;15.90;;;;;;;;;;2078213;28;20025;-55
2022/03/22 06:20:01;;;;;;;32.42;14.48;;;;;;;;;;2079038;28;20120;-57
2022/03/22 06:21:20;;;;;;;29.73;15.38;;;;;;;;;;2076411;28;20108;-57
2022/03/22 06:22:39;;;;;;;33.20;14.38;;;;;;;;;;2078376;28;20042;-57
2022/03/22 06:23:58;;;;;;;38.83;16.13;;;;;;;;;;2079063;28;20591;-57
2022/03/22 06:25:17;;;;;;;29.00;16.02;;;;;;;;;;2079208;28;20033;-58
2022/03/22 06:26:36;;;;;;;35.13;15.65;;;;;;;;;;2078963;28;20042;-58
2022/03/22 06:27:56;;;;;;;31.20;16.05;;;;;;;;;;2071095;28;20037;-58
2022/03/22 06:29:15;;;;;;;40.15;15.30;;;;;;;;;;2076929;28;20030;-58
2022/03/22 06:30:34;;;;;;;37.10;15.45;;;;;;;;;;2078413;28;20061;-58
2022/03/22 06:31:53;;;;;;;38.72;15.10;;;;;;;;;;2072137;28;20062;-58
2022/03/22 06:33:13;;;;;;;41.58;15.68;;;;;;;;;;2078251;28;20076;-58
2022/03/22 06:34:32;;;;;;;38.78;16.30;;;;;;;;;;2077220;28;20042;-58
2022/03/22 06:35:51;;;;;;;31.85;14.60;;;;;;;;;;2077495;28;20025;-58
2022/03/22 06:37:10;;;;;;;46.00;16.08;;;;;;;;;;2079024;28;20053;-56
2022/03/22 06:38:32;;;;;;;39.22;16.17;;;;;;;;;;2078713;28;20076;-58
2022/03/22 06:39:51;;;;;;;32.00;15.93;;;;;;;;;;2077911;28;20022;-57
2022/03/22 06:41:10;;;;;;;34.78;15.77;;;;;;;;;;2079436;28;20037;-57
2022/03/22 06:42:28;;;;;;;33.65;15.85;;;;;;;;;;2078566;28;20029;-58
2022/03/22 06:43:47;;;;;;;39.13;17.00;;;;;;;;;;2080019;28;20447;-58
2022/03/22 06:45:07;;;;;;;30.42;14.98;;;;;;;;;;2076820;28;20108;-58
2022/03/22 06:46:27;;;;;;;34.03;15.35;;;;;;;;;;2078768;28;20060;-58
2022/03/22 06:47:46;;;;;;;30.23;15.43;;;;;;;;;;2080909;28;20029;-57
2022/03/22 06:49:06;;;;;;;31.60;15.25;;;;;;;;;;2079940;28;20108;-58
2022/03/22 06:50:25;;;;;;;34.67;15.75;;;;;;;;;;2079259;28;20400;-58
2022/03/22 06:51:44;;;;;;;37.65;17.98;;;;;;;;;;2080112;28;20049;-58
2022/03/22 06:53:04;;;;;;;34.55;16.92;;;;;;;;;;2081000;28;20108;-57
2022/03/22 06:54:23;;;;;;;31.17;16.83;;;;;;;;;;2079764;28;20033;-57
2022/03/22 06:55:43;;;;;;;34.72;15.10;;;;;;;;;;2079990;28;20021;-57
2022/03/22 06:57:02;;;;;;;33.72;14.57;;;;;;;;;;2078424;28;20503;-58
2022/03/22 06:58:24;;;;;;;31.30;14.20;;;;;;;;;;2079658;28;20026;-56
2022/03/22 06:59:43;;;;;;;29.63;15.73;;;;;;;;;;2077567;28;20029;-58
2022/03/22 07:01:02;;;;;;;38.83;15.55;;;;;;;;;;2081415;28;20026;-57
2022/03/22 07:02:21;;;;;;;32.25;16.20;;;;;;;;;;2079561;28;20026;-58
2022/03/22 07:03:40;;;;;;;31.75;14.25;;;;;;;;;;2076309;28;20034;-58
2022/03/22 07:04:59;;;;;;;33.90;15.77;;;;;;;;;;2081050;28;20048;-58
2022/03/22 07:06:18;;;;;;;36.65;15.13;;;;;;;;;;2080647;28;20037;-58
2022/03/22 07:07:37;;;;;;;41.50;15.85;;;;;;;;;;2080264;28;20484;-59
2022/03/22 07:08:56;;;;;;;32.22;14.40;;;;;;;;;;2081619;28;20037;-58
2022/03/22 07:10:16;;;;;;;37.58;15.25;;;;;;;;;;2081147;28;20554;-58
2022/03/22 07:11:49;;;;;;;34.25;14.77;;;;;;;;;;2079024;28;20038;-58
2022/03/22 07:13:10;;;;;;;38.33;15.32;;;;;;;;;;2080384;28;20420;-58
2022/03/22 07:14:29;;;;;;;33.75;15.20;;;;;;;;;;2079710;28;20183;-58
2022/03/22 07:15:47;;;;;;;44.50;15.43;;;;;;;;;;2079550;28;20026;-57
2022/03/22 07:17:10;;;;;;;39.47;14.77;;;;;;;;;;2081090;28;20029;-58
2022/03/22 07:18:29;;;;;;;36.88;16.05;;;;;;;;;;2081044;28;20104;-58
2022/03/22 07:19:48;;;;;;;33.35;14.45;;;;;;;;;;2081083;28;20033;-58
2022/03/22 07:21:07;;;;;;;36.45;14.73;;;;;;;;;;2080003;28;20018;-58
2022/03/22 07:22:26;;;;;;;43.38;16.45;;;;;;;;;;2077923;28;20129;-58
2022/03/22 07:23:45;;;;;;;34.13;15.13;;;;;;;;;;2082019;28;20033;-58
2022/03/22 07:25:05;;;;;;;42.88;15.30;;;;;;;;;;2080144;28;20108;-56
2022/03/22 07:26:23;;;;;;;29.48;14.73;;;;;;;;;;2080632;28;20030;-58
2022/03/22 07:27:43;;;;;;;31.30;14.43;;;;;;;;;;2080311;28;20491;-57
2022/03/22 07:29:01;;;;;;;32.22;14.50;;;;;;;;;;2080770;28;20034;-58
2022/03/22 07:30:20;;;;;;;36.53;15.57;;;;;;;;;;2079262;28;20026;-58
2022/03/22 07:31:41;;;;;;;35.72;15.52;;;;;;;;;;2079296;28;20030;-58
2022/03/22 07:32:59;;;;;;;28.70;15.07;;;;;;;;;;2078806;28;20037;-58
2022/03/22 07:34:20;;;;;;;36.58;14.98;;;;;;;;;;2080305;28;20041;-58
2022/03/22 07:35:39;;;;;;;34.70;14.85;;;;;;;;;;2080485;28;20029;-57
2022/03/22 07:36:57;;;;;;;38.25;15.93;;;;;;;;;;2079018;28;20022;-56
2022/03/22 07:38:16;;;;;;;38.47;16.27;;;;;;;;;;2079321;28;20021;-56
2022/03/22 07:39:35;;;;;;;40.40;15.93;;;;;;;;;;2080336;28;20038;-56
2022/03/22 07:40:54;;;;;;;41.25;14.93;;;;;;;;;;2078979;28;20101;-55
2022/03/22 07:42:13;;;;;;;40.67;15.45;;;;;;;;;;2080792;28;20029;-56
2022/03/22 07:43:32;;;;;;;41.35;15.80;;;;;;;;;;2080801;28;20041;-57
2022/03/22 07:44:51;;;;;;;28.60;15.13;;;;;;;;;;2079645;28;20057;-57
2022/03/22 07:46:10;;;;;;;36.80;15.38;;;;;;;;;;2079453;28;20025;-56
2022/03/22 07:47:29;;;;;;;37.05;16.38;;;;;;;;;;2078603;28;20033;-57
2022/03/22 07:48:47;;;;;;;38.88;15.65;;;;;;;;;;2080106;28;20023;-57
2022/03/22 07:53:23;;;;;;;40.33;16.15;;;;;;;;;;2078312;28;20042;-56
2022/03/22 07:54:43;;;;;;;41.47;16.88;;;;;;;;;;2076289;28;20022;-56
2022/03/22 07:56:02;;;;;;;40.83;15.98;;;;;;;;;;2081249;28;20638;-58
2022/03/22 07:57:21;;;;;;;40.45;16.98;;;;;;;;;;2080670;28;20427;-57
2022/03/22 07:58:41;;;;;;;40.33;16.52;;;;;;;;;;2078740;28;20033;-57
2022/03/22 08:00:00;;;;;;;36.85;16.80;;;;;;;;;;2077368;28;20048;-56
2022/03/22 08:01:19;;;;;;;41.45;16.25;;;;;;;;;;2078620;28;20879;-56
2022/03/22 08:02:38;;;;;;;38.00;16.75;;;;;;;;;;2077596;28;20440;-57
2022/03/22 08:03:57;;;;;;;35.58;16.95;;;;;;;;;;2080892;28;20029;-57
2022/03/22 08:05:16;;;;;;;40.13;16.20;;;;;;;;;;2080521;28;20041;-56
2022/03/22 08:06:35;;;;;;;40.38;16.42;;;;;;;;;;2080926;28;20034;-57
2022/03/22 08:07:54;;;;;;;39.70;16.67;;;;;;;;;;2078181;28;20416;-55
2022/03/22 08:09:13;;;;;;;48.15;16.90;;;;;;;;;;2081068;28;20033;-57